createdAt,value
2022-10-02T00:00:48.724Z,95.89
2022-10-02T00:01:48.768Z,95.79
2022-10-02T00:02:48.690Z,95.79
2022-10-02T00:03:48.753Z,95.59
2022-10-02T00:04:48.968Z,95.48
2022-10-02T00:05:48.658Z,95.38
2022-10-02T00:06:48.664Z,95.48
2022-10-02T00:07:48.662Z,95.18
2022-10-02T00:08:48.609Z,95.28
2022-10-02T00:09:48.604Z,95.34
2022-10-02T00:10:48.586Z,95.54
2022-10-02T00:11:48.574Z,95.54
2022-10-02T00:12:48.590Z,95.54
2022-10-02T00:13:48.552Z,95.34
2022-10-02T00:14:48.544Z,95.44
2022-10-02T00:15:48.539Z,95.79
2022-10-02T00:16:48.609Z,95.48
2022-10-02T00:17:48.546Z,95.48
2022-10-02T00:18:48.503Z,95.69
2022-10-02T00:19:48.462Z,95.79
2022-10-02T00:20:48.455Z,96.10
2022-10-02T00:21:48.473Z,96.20
2022-10-02T00:22:48.426Z,96.10
2022-10-02T00:23:48.423Z,96.00
2022-10-02T00:24:48.402Z,96.10
2022-10-02T00:25:48.388Z,96.41
2022-10-02T00:26:48.359Z,96.30
2022-10-02T00:27:48.445Z,96.10
2022-10-02T00:28:48.347Z,96.10
2022-10-02T00:29:48.355Z,95.89
2022-10-02T00:30:49.232Z,96.20
2022-10-02T00:31:48.405Z,96.20
2022-10-02T00:32:48.296Z,96.51
2022-10-02T00:33:48.299Z,96.30
2022-10-02T00:34:48.268Z,96.41
2022-10-02T00:35:48.248Z,96.61
2022-10-02T00:36:48.257Z,96.61
2022-10-02T00:37:48.225Z,96.61
2022-10-02T00:38:48.278Z,96.51
2022-10-02T00:39:48.191Z,96.51
2022-10-02T00:40:48.208Z,96.30
2022-10-02T00:41:48.398Z,95.89
2022-10-02T00:42:48.161Z,95.69
2022-10-02T00:43:48.145Z,95.79
2022-10-02T00:44:48.118Z,95.69
2022-10-02T00:45:48.259Z,95.38
2022-10-02T00:46:48.094Z,95.34
2022-10-02T00:47:48.088Z,95.44
2022-10-02T00:48:48.070Z,95.95
2022-10-02T00:49:48.085Z,95.85
2022-10-02T00:50:48.050Z,96.41
2022-10-02T00:51:48.051Z,96.30
2022-10-02T00:52:48.014Z,95.69
2022-10-02T00:53:48.036Z,95.89
2022-10-02T00:54:48.017Z,95.59
2022-10-02T00:55:48.014Z,95.85
2022-10-02T00:56:47.963Z,95.95
2022-10-02T00:57:47.984Z,95.59
2022-10-02T00:58:47.937Z,95.44
2022-10-02T00:59:47.951Z,95.64
2022-10-02T01:00:47.975Z,95.54
2022-10-02T01:01:47.940Z,95.64
2022-10-02T01:02:47.879Z,95.95
2022-10-02T01:03:47.871Z,95.95
2022-10-02T01:04:47.849Z,96.67
2022-10-02T01:05:47.848Z,96.67
2022-10-02T01:06:47.857Z,96.67
2022-10-02T01:07:47.819Z,96.56
2022-10-02T01:08:47.798Z,96.67
2022-10-02T01:09:47.789Z,96.87
2022-10-02T01:10:47.776Z,97.08
2022-10-02T01:11:47.786Z,96.97
2022-10-02T01:12:47.749Z,96.87
2022-10-02T01:13:47.735Z,96.56
2022-10-02T01:14:47.721Z,96.15
2022-10-02T01:15:47.701Z,95.75
2022-10-02T01:16:47.736Z,95.75
2022-10-02T01:17:47.704Z,96.05
2022-10-02T01:18:47.661Z,95.75
2022-10-02T01:19:47.666Z,95.23
2022-10-02T01:20:47.664Z,95.34
2022-10-02T01:21:47.626Z,95.64
2022-10-02T01:22:47.607Z,95.85
2022-10-02T01:23:47.606Z,95.95
2022-10-02T01:24:47.585Z,95.75
2022-10-02T01:25:47.601Z,95.44
2022-10-02T01:26:47.576Z,95.44
2022-10-02T01:27:47.591Z,95.13
2022-10-02T01:28:47.533Z,95.23
2022-10-02T01:29:47.516Z,95.44
2022-10-02T01:30:47.499Z,95.13
2022-10-02T01:31:47.542Z,95.13
2022-10-02T01:32:47.473Z,95.23
2022-10-02T01:33:47.496Z,95.13
2022-10-02T01:34:47.473Z,94.73
2022-10-02T01:35:47.463Z,94.82
2022-10-02T01:36:47.424Z,94.93
2022-10-02T01:37:47.434Z,94.93
2022-10-02T01:38:47.406Z,95.23
2022-10-02T01:39:47.386Z,95.13
2022-10-02T01:40:47.366Z,95.23
2022-10-02T01:41:47.396Z,95.23
2022-10-02T01:42:47.338Z,95.13
2022-10-02T01:43:47.332Z,95.03
2022-10-02T01:44:47.312Z,95.34
2022-10-02T01:45:47.337Z,94.93
2022-10-02T01:46:47.317Z,95.03
2022-10-02T01:47:47.272Z,95.23
2022-10-02T01:48:47.256Z,95.13
2022-10-02T01:49:47.279Z,94.82
2022-10-02T01:50:47.224Z,94.93
2022-10-02T01:51:47.241Z,95.03
2022-10-02T01:52:47.231Z,95.13
2022-10-02T01:53:47.195Z,94.93
2022-10-02T01:54:47.171Z,95.03
2022-10-02T01:55:47.171Z,95.03
2022-10-02T01:56:47.188Z,94.93
2022-10-02T01:57:47.155Z,95.34
2022-10-02T01:58:47.147Z,95.60
2022-10-02T01:59:47.141Z,95.03
2022-10-02T02:00:47.148Z,95.03
2022-10-02T02:01:47.169Z,94.93
2022-10-02T02:02:47.064Z,94.21
2022-10-02T02:03:47.130Z,94.93
2022-10-02T02:04:47.031Z,95.44
2022-10-02T02:05:47.035Z,95.75
2022-10-02T02:06:47.057Z,95.54
2022-10-02T02:07:46.998Z,95.13
2022-10-02T02:08:46.987Z,95.44
2022-10-02T02:09:46.977Z,95.64
2022-10-02T02:10:46.962Z,95.64
2022-10-02T02:11:46.969Z,95.23
2022-10-02T02:12:46.955Z,94.42
2022-10-02T02:13:47.010Z,94.32
2022-10-02T02:14:46.928Z,94.42
2022-10-02T02:15:46.903Z,94.73
2022-10-02T02:16:46.938Z,94.62
2022-10-02T02:17:46.899Z,94.21
2022-10-02T02:18:46.850Z,94.32
2022-10-02T02:19:46.867Z,94.21
2022-10-02T02:20:46.857Z,94.62
2022-10-02T02:21:46.811Z,94.93
2022-10-02T02:22:46.802Z,95.03
2022-10-02T02:23:46.786Z,95.13
2022-10-02T02:24:46.765Z,95.03
2022-10-02T02:25:46.789Z,94.62
2022-10-02T02:26:46.735Z,94.32
2022-10-02T02:27:46.747Z,94.73
2022-10-02T02:28:46.712Z,94.01
2022-10-02T02:29:46.720Z,94.11
2022-10-02T02:30:46.723Z,94.48
2022-10-02T02:31:46.731Z,94.11
2022-10-02T02:32:46.667Z,94.01
2022-10-02T02:33:46.679Z,94.27
2022-10-02T02:34:46.639Z,93.66
2022-10-02T02:35:46.621Z,93.76
2022-10-02T02:36:46.613Z,93.55
2022-10-02T02:37:46.596Z,93.15
2022-10-02T02:38:46.582Z,93.35
2022-10-02T02:39:46.608Z,93.45
2022-10-02T02:40:46.554Z,93.15
2022-10-02T02:41:46.547Z,92.84
2022-10-02T02:42:46.557Z,92.23
2022-10-02T02:43:46.533Z,92.23
2022-10-02T02:44:46.493Z,91.72
2022-10-02T02:45:46.567Z,92.13
2022-10-02T02:46:46.475Z,92.33
2022-10-02T02:47:46.484Z,93.05
2022-10-02T02:48:46.444Z,93.25
2022-10-02T02:49:46.495Z,93.55
2022-10-02T02:50:46.446Z,93.55
2022-10-02T02:51:46.408Z,94.07
2022-10-02T02:52:46.423Z,94.37
2022-10-02T02:53:46.383Z,94.17
2022-10-02T02:54:46.362Z,93.86
2022-10-02T02:55:46.349Z,94.07
2022-10-02T02:56:46.335Z,94.17
2022-10-02T02:57:46.354Z,94.07
2022-10-02T02:58:46.313Z,94.17
2022-10-02T02:59:46.300Z,94.68
2022-10-02T03:00:46.339Z,93.96
2022-10-02T03:01:46.290Z,93.66
2022-10-02T03:02:46.284Z,93.55
2022-10-02T03:03:46.244Z,94.17
2022-10-02T03:04:46.256Z,94.17
2022-10-02T03:05:46.216Z,93.86
2022-10-02T03:06:46.194Z,94.17
2022-10-02T03:07:46.187Z,93.96
2022-10-02T03:08:46.183Z,93.25
2022-10-02T03:09:46.214Z,93.25
2022-10-02T03:10:46.192Z,93.55
2022-10-02T03:11:46.166Z,93.96
2022-10-02T03:12:46.118Z,93.96
2022-10-02T03:13:46.134Z,93.76
2022-10-02T03:14:46.104Z,94.07
2022-10-02T03:15:46.101Z,94.27
2022-10-02T03:16:46.076Z,94.27
2022-10-02T03:17:46.047Z,94.68
2022-10-02T03:18:46.076Z,94.37
2022-10-02T03:19:46.021Z,94.78
2022-10-02T03:20:46.035Z,93.86
2022-10-02T03:21:45.995Z,93.35
2022-10-02T03:22:45.987Z,92.23
2022-10-02T03:23:45.980Z,92.54
2022-10-02T03:24:45.959Z,92.84
2022-10-02T03:25:45.964Z,93.05
2022-10-02T03:26:45.934Z,92.13
2022-10-02T03:27:45.953Z,92.02
2022-10-02T03:28:55.562Z,90.49
2022-10-02T03:29:45.890Z,89.53
2022-10-02T03:30:45.910Z,89.63
2022-10-02T03:31:45.909Z,90.04
2022-10-02T03:32:45.851Z,89.84
2022-10-02T03:33:45.828Z,89.73
2022-10-02T03:34:45.823Z,89.94
2022-10-02T03:35:45.830Z,89.94
2022-10-02T03:36:45.799Z,89.73
2022-10-02T03:37:45.775Z,90.04
2022-10-02T03:38:50.057Z,90.04
2022-10-02T03:39:45.759Z,90.66
2022-10-02T03:40:45.749Z,90.04
2022-10-02T03:41:45.749Z,89.43
2022-10-02T03:42:45.749Z,89.84
2022-10-02T03:43:45.728Z,89.63
2022-10-02T03:44:45.677Z,89.53
2022-10-02T03:45:51.509Z,89.73
2022-10-02T03:46:45.690Z,89.94
2022-10-02T03:47:45.649Z,90.14
2022-10-02T03:48:45.657Z,90.86
2022-10-02T03:49:45.644Z,90.75
2022-10-02T03:50:45.600Z,90.14
2022-10-02T03:51:45.593Z,90.45
2022-10-02T03:52:45.600Z,90.04
2022-10-02T03:53:45.587Z,89.84
2022-10-02T03:54:45.584Z,89.94
2022-10-02T03:55:45.537Z,90.14
2022-10-02T03:56:45.539Z,89.73
2022-10-02T03:57:45.509Z,89.94
2022-10-02T03:58:45.526Z,89.73
2022-10-02T03:59:45.475Z,90.25
2022-10-02T04:00:45.465Z,90.04
2022-10-02T04:01:48.956Z,89.53
2022-10-02T04:02:45.459Z,89.02
2022-10-02T04:03:45.484Z,89.12
2022-10-02T04:04:45.413Z,88.92
2022-10-02T04:05:45.390Z,89.12
2022-10-02T04:06:45.390Z,89.23
2022-10-02T04:07:50.270Z,89.02
2022-10-02T04:08:45.367Z,88.82
2022-10-02T04:09:45.368Z,89.32
2022-10-02T04:10:45.366Z,90.35
2022-10-02T04:11:45.318Z,90.04
2022-10-02T04:12:45.314Z,89.32
2022-10-02T04:13:45.292Z,90.25
2022-10-02T04:14:45.273Z,88.82
2022-10-02T04:15:45.339Z,88.82
2022-10-02T04:16:45.247Z,88.71
2022-10-02T04:17:45.234Z,89.12
2022-10-02T04:18:45.251Z,89.12
2022-10-02T04:19:45.209Z,89.32
2022-10-02T04:20:45.197Z,90.04
2022-10-02T04:21:45.247Z,89.53
2022-10-02T04:22:45.168Z,90.66
2022-10-02T04:23:45.163Z,90.45
2022-10-02T04:24:45.140Z,90.45
2022-10-02T04:25:45.137Z,90.04
2022-10-02T04:26:45.145Z,88.41
2022-10-02T04:27:45.143Z,88.92
2022-10-02T04:28:45.088Z,88.92
2022-10-02T04:29:45.071Z,88.20
2022-10-02T04:30:45.070Z,88.10
2022-10-02T04:31:45.090Z,88.51
2022-10-02T04:32:45.064Z,88.00
2022-10-02T04:33:45.014Z,88.00
2022-10-02T04:34:45.028Z,87.70
2022-10-02T04:35:44.978Z,87.49
2022-10-02T04:36:44.979Z,86.77
2022-10-02T04:37:45.006Z,86.43
2022-10-02T04:38:44.959Z,86.22
2022-10-02T04:39:46.768Z,85.82
2022-10-02T04:40:44.923Z,85.41
2022-10-02T04:41:44.915Z,85.71
2022-10-02T04:42:44.911Z,86.33
2022-10-02T04:43:44.883Z,86.53
2022-10-02T04:44:44.868Z,86.43
2022-10-02T04:45:44.953Z,86.02
2022-10-02T04:46:44.837Z,86.63
2022-10-02T04:47:44.826Z,86.33
2022-10-02T04:48:44.814Z,86.53
2022-10-02T04:49:44.800Z,86.63
2022-10-02T04:50:44.816Z,87.04
2022-10-02T04:51:44.775Z,86.94
2022-10-02T04:52:44.769Z,87.45
2022-10-02T04:53:44.802Z,88.67
2022-10-02T04:54:44.742Z,88.71
2022-10-02T04:55:44.742Z,88.82
2022-10-02T04:56:44.708Z,88.51
2022-10-02T04:57:44.694Z,88.20
2022-10-02T04:58:44.687Z,88.71
2022-10-02T04:59:44.667Z,88.41
2022-10-02T05:00:44.716Z,86.77
2022-10-02T05:01:44.721Z,87.18
2022-10-02T05:02:44.625Z,86.47
2022-10-02T05:03:44.610Z,85.82
2022-10-02T05:04:44.598Z,86.63
2022-10-02T05:05:44.606Z,86.22
2022-10-02T05:06:44.611Z,86.43
2022-10-02T05:07:44.554Z,85.82
2022-10-02T05:08:44.612Z,86.73
2022-10-02T05:09:44.532Z,86.43
2022-10-02T05:10:44.516Z,86.53
2022-10-02T05:11:44.502Z,86.73
2022-10-02T05:12:44.507Z,86.12
2022-10-02T05:13:44.497Z,85.21
2022-10-02T05:14:44.460Z,85.21
2022-10-02T05:15:44.471Z,84.69
2022-10-02T05:16:44.513Z,84.28
2022-10-02T05:17:44.411Z,84.80
2022-10-02T05:18:44.444Z,84.69
2022-10-02T05:19:44.403Z,85.71
2022-10-02T05:20:44.377Z,86.33
2022-10-02T05:21:44.368Z,85.82
2022-10-02T05:22:44.349Z,85.92
2022-10-02T05:23:44.334Z,86.33
2022-10-02T05:24:44.358Z,86.73
2022-10-02T05:25:44.308Z,87.04
2022-10-02T05:26:44.299Z,86.83
2022-10-02T05:27:44.315Z,86.73
2022-10-02T05:28:44.266Z,87.49
2022-10-02T05:29:44.283Z,88.31
2022-10-02T05:30:44.240Z,88.61
2022-10-02T05:31:44.285Z,88.82
2022-10-02T05:32:44.217Z,88.92
2022-10-02T05:33:48.235Z,88.61
2022-10-02T05:34:44.219Z,89.23
2022-10-02T05:35:44.194Z,90.45
2022-10-02T05:36:44.169Z,89.98
2022-10-02T05:37:44.198Z,91.00
2022-10-02T05:38:44.167Z,91.00
2022-10-02T05:39:44.148Z,91.11
2022-10-02T05:40:44.153Z,91.31
2022-10-02T05:41:44.107Z,90.80
2022-10-02T05:42:44.086Z,91.31
2022-10-02T05:43:44.069Z,92.74
2022-10-02T05:44:44.059Z,92.13
2022-10-02T05:45:44.068Z,91.82
2022-10-02T05:46:44.127Z,91.82
2022-10-02T05:47:44.039Z,91.41
2022-10-02T05:48:44.041Z,91.72
2022-10-02T05:49:43.987Z,91.11
2022-10-02T05:50:44.004Z,90.59
2022-10-02T05:51:43.989Z,89.78
2022-10-02T05:52:43.954Z,89.98
2022-10-02T05:53:43.951Z,89.43
2022-10-02T05:54:43.919Z,89.37
2022-10-02T05:55:43.918Z,89.43
2022-10-02T05:56:43.918Z,90.04
2022-10-02T05:57:43.882Z,90.49
2022-10-02T05:58:43.863Z,90.29
2022-10-02T05:59:43.875Z,89.88
2022-10-02T06:00:43.922Z,90.08
2022-10-02T06:01:43.907Z,90.49
2022-10-02T06:02:43.819Z,90.59
2022-10-02T06:03:43.795Z,91.20
2022-10-02T06:04:43.801Z,91.41
2022-10-02T06:05:43.769Z,91.82
2022-10-02T06:06:43.786Z,91.52
2022-10-02T06:07:43.775Z,91.31
2022-10-02T06:08:43.729Z,90.59
2022-10-02T06:09:43.756Z,89.58
2022-10-02T06:10:43.704Z,90.19
2022-10-02T06:11:43.700Z,90.08
2022-10-02T06:12:43.680Z,90.08
2022-10-02T06:13:43.714Z,90.70
2022-10-02T06:14:46.213Z,91.00
2022-10-02T06:15:43.640Z,91.31
2022-10-02T06:16:43.716Z,90.90
2022-10-02T06:17:43.630Z,90.90
2022-10-02T06:18:43.613Z,91.00
2022-10-02T06:19:43.585Z,91.00
2022-10-02T06:20:43.571Z,91.20
2022-10-02T06:21:43.554Z,91.11
2022-10-02T06:22:43.570Z,91.31
2022-10-02T06:23:43.529Z,91.31
2022-10-02T06:24:43.512Z,91.52
2022-10-02T06:25:43.526Z,91.52
2022-10-02T06:26:43.504Z,91.41
2022-10-02T06:27:43.497Z,91.41
2022-10-02T06:28:43.456Z,91.20
2022-10-02T06:29:43.446Z,91.52
2022-10-02T06:30:43.422Z,91.52
2022-10-02T06:31:43.532Z,91.72
2022-10-02T06:32:43.398Z,92.02
2022-10-02T06:33:43.495Z,92.02
2022-10-02T06:34:47.667Z,92.43
2022-10-02T06:35:43.384Z,92.43
2022-10-02T06:36:43.349Z,92.43
2022-10-02T06:37:43.332Z,92.54
2022-10-02T06:38:43.430Z,92.94
2022-10-02T06:39:43.312Z,93.25
2022-10-02T06:40:43.300Z,92.94
2022-10-02T06:41:43.281Z,92.02
2022-10-02T06:42:43.268Z,91.41
2022-10-02T06:43:43.273Z,90.90
2022-10-02T06:44:43.249Z,91.16
2022-10-02T06:45:43.285Z,91.67
2022-10-02T06:46:43.221Z,91.98
2022-10-02T06:47:43.223Z,91.88
2022-10-02T06:48:43.196Z,91.47
2022-10-02T06:49:43.172Z,91.88
2022-10-02T06:50:43.173Z,92.19
2022-10-02T06:51:43.169Z,92.19
2022-10-02T06:52:43.169Z,92.59
2022-10-02T06:53:43.133Z,93.00
2022-10-02T06:54:43.131Z,93.41
2022-10-02T06:55:43.085Z,93.82
2022-10-02T06:56:43.107Z,94.02
2022-10-02T06:57:43.057Z,93.62
2022-10-02T06:58:43.086Z,91.88
2022-10-02T06:59:43.039Z,90.75
2022-10-02T07:00:43.081Z,90.75
2022-10-02T07:01:43.149Z,91.06
2022-10-02T07:02:43.012Z,91.57
2022-10-02T07:03:42.990Z,92.69
2022-10-02T07:04:42.970Z,94.02
2022-10-02T07:05:42.971Z,94.33
2022-10-02T07:06:42.964Z,94.33
2022-10-02T07:07:42.927Z,94.33
2022-10-02T07:08:42.922Z,94.33
2022-10-02T07:09:42.894Z,94.23
2022-10-02T07:10:42.904Z,94.43
2022-10-02T07:11:42.893Z,94.43
2022-10-02T07:12:42.881Z,94.64
2022-10-02T07:13:42.849Z,95.15
2022-10-02T07:14:42.830Z,95.35
2022-10-02T07:15:42.821Z,95.25
2022-10-02T07:16:42.864Z,95.04
2022-10-02T07:17:42.818Z,94.94
2022-10-02T07:18:42.797Z,95.04
2022-10-02T07:19:42.761Z,94.84
2022-10-02T07:20:42.752Z,94.64
2022-10-02T07:21:42.747Z,94.33
2022-10-02T07:22:45.458Z,94.02
2022-10-02T07:23:42.742Z,94.33
2022-10-02T07:24:42.718Z,94.43
2022-10-02T07:25:42.679Z,94.84
2022-10-02T07:26:42.667Z,94.94
2022-10-02T07:27:42.659Z,95.20
2022-10-02T07:28:42.701Z,95.31
2022-10-02T07:29:42.627Z,95.51
2022-10-02T07:30:42.659Z,95.00
2022-10-02T07:31:42.742Z,94.53
2022-10-02T07:32:42.589Z,94.53
2022-10-02T07:33:42.584Z,94.64
2022-10-02T07:34:42.572Z,94.12
2022-10-02T07:35:42.585Z,94.33
2022-10-02T07:36:42.527Z,93.71
2022-10-02T07:37:42.526Z,94.02
2022-10-02T07:38:42.505Z,94.33
2022-10-02T07:39:42.527Z,94.12
2022-10-02T07:40:42.485Z,94.43
2022-10-02T07:41:42.467Z,94.43
2022-10-02T07:42:42.454Z,94.33
2022-10-02T07:43:42.444Z,94.53
2022-10-02T07:44:42.453Z,94.12
2022-10-02T07:45:42.486Z,94.84
2022-10-02T07:46:42.394Z,95.25
2022-10-02T07:47:42.386Z,94.74
2022-10-02T07:48:42.374Z,95.35
2022-10-02T07:49:42.360Z,94.53
2022-10-02T07:50:42.387Z,94.02
2022-10-02T07:51:42.324Z,94.23
2022-10-02T07:52:42.327Z,93.82
2022-10-02T07:53:42.319Z,93.92
2022-10-02T07:54:42.292Z,94.33
2022-10-02T07:55:42.303Z,94.53
2022-10-02T07:56:42.256Z,94.94
2022-10-02T07:57:42.248Z,94.64
2022-10-02T07:58:42.235Z,94.33
2022-10-02T07:59:42.225Z,95.15
2022-10-02T08:00:42.229Z,95.15
2022-10-02T08:01:42.204Z,95.45
2022-10-02T08:02:42.177Z,95.25
2022-10-02T08:03:42.164Z,94.53
2022-10-02T08:04:42.296Z,94.84
2022-10-02T08:05:42.135Z,95.15
2022-10-02T08:06:42.118Z,95.65
2022-10-02T08:07:42.110Z,95.15
2022-10-02T08:08:42.105Z,94.53
2022-10-02T08:09:42.122Z,94.53
2022-10-02T08:10:42.076Z,94.64
2022-10-02T08:11:45.087Z,95.35
2022-10-02T08:12:42.047Z,94.94
2022-10-02T08:13:42.065Z,94.94
2022-10-02T08:14:42.043Z,95.56
2022-10-02T08:15:42.008Z,95.45
2022-10-02T08:16:42.041Z,95.76
2022-10-02T08:17:41.991Z,95.96
2022-10-02T08:18:41.960Z,95.76
2022-10-02T08:19:41.943Z,95.56
2022-10-02T08:20:41.931Z,95.04
2022-10-02T08:21:41.947Z,95.04
2022-10-02T08:22:41.925Z,95.25
2022-10-02T08:23:41.891Z,95.35
2022-10-02T08:24:41.874Z,95.19
2022-10-02T08:25:41.868Z,94.84
2022-10-02T08:26:42.224Z,93.96
2022-10-02T08:27:41.873Z,94.12
2022-10-02T08:28:41.818Z,94.17
2022-10-02T08:29:41.849Z,94.78
2022-10-02T08:30:41.799Z,95.29
2022-10-02T08:31:41.815Z,94.98
2022-10-02T08:32:41.770Z,94.68
2022-10-02T08:33:41.805Z,94.68
2022-10-02T08:34:41.736Z,94.27
2022-10-02T08:35:41.726Z,94.68
2022-10-02T08:36:41.705Z,95.19
2022-10-02T08:37:41.766Z,94.89
2022-10-02T08:38:41.717Z,94.07
2022-10-02T08:39:41.670Z,94.89
2022-10-02T08:40:41.657Z,94.89
2022-10-02T08:41:41.645Z,94.78
2022-10-02T08:42:41.658Z,94.68
2022-10-02T08:43:41.749Z,95.19
2022-10-02T08:44:41.612Z,95.39
2022-10-02T08:45:41.619Z,95.60
2022-10-02T08:46:41.570Z,95.60
2022-10-02T08:47:41.568Z,95.70
2022-10-02T08:48:41.605Z,95.29
2022-10-02T08:49:41.539Z,95.04
2022-10-02T08:50:41.518Z,94.89
2022-10-02T08:51:41.507Z,94.02
2022-10-02T08:52:41.576Z,94.43
2022-10-02T08:53:41.510Z,95.04
2022-10-02T08:54:41.470Z,94.33
2022-10-02T08:55:41.464Z,94.33
2022-10-02T08:56:41.437Z,94.07
2022-10-02T08:57:41.531Z,94.64
2022-10-02T08:58:41.441Z,94.64
2022-10-02T08:59:41.406Z,94.12
2022-10-02T09:00:41.491Z,94.33
2022-10-02T09:01:41.402Z,93.71
2022-10-02T09:02:41.382Z,93.82
2022-10-02T09:03:41.374Z,94.23
2022-10-02T09:04:41.335Z,94.02
2022-10-02T09:05:41.343Z,93.82
2022-10-02T09:06:41.313Z,94.74
2022-10-02T09:07:41.327Z,94.43
2022-10-02T09:08:41.299Z,94.33
2022-10-02T09:09:41.269Z,93.92
2022-10-02T09:10:41.256Z,94.12
2022-10-02T09:11:41.286Z,94.12
2022-10-02T09:12:41.257Z,95.15
2022-10-02T09:13:41.241Z,94.12
2022-10-02T09:14:41.201Z,93.71
2022-10-02T09:15:41.181Z,94.74
2022-10-02T09:16:41.271Z,94.53
2022-10-02T09:17:41.157Z,95.04
2022-10-02T09:18:41.143Z,94.94
2022-10-02T09:19:41.171Z,94.02
2022-10-02T09:20:41.117Z,94.23
2022-10-02T09:21:41.120Z,94.33
2022-10-02T09:22:41.077Z,94.64
2022-10-02T09:23:41.077Z,94.94
2022-10-02T09:24:41.080Z,95.56
2022-10-02T09:25:41.072Z,95.25
2022-10-02T09:26:41.047Z,94.64
2022-10-02T09:27:41.028Z,95.45
2022-10-02T09:28:41.010Z,95.39
2022-10-02T09:29:41.018Z,95.70
2022-10-02T09:30:40.983Z,95.80
2022-10-02T09:31:41.023Z,95.60
2022-10-02T09:32:40.955Z,95.39
2022-10-02T09:33:40.957Z,95.80
2022-10-02T09:34:40.942Z,95.50
2022-10-02T09:35:40.919Z,96.31
2022-10-02T09:36:40.927Z,96.62
2022-10-02T09:37:40.881Z,96.31
2022-10-02T09:38:40.873Z,96.72
2022-10-02T09:39:40.855Z,96.62
2022-10-02T09:40:40.853Z,96.31
2022-10-02T09:41:40.862Z,96.31
2022-10-02T09:42:40.839Z,96.01
2022-10-02T09:43:41.133Z,96.31
2022-10-02T09:44:40.813Z,97.03
2022-10-02T09:45:40.803Z,95.70
2022-10-02T09:46:40.761Z,95.80
2022-10-02T09:47:40.811Z,96.01
2022-10-02T09:48:40.734Z,96.21
2022-10-02T09:49:40.751Z,96.92
2022-10-02T09:50:40.704Z,97.13
2022-10-02T09:51:40.726Z,97.24
2022-10-02T09:52:42.921Z,97.85
2022-10-02T09:53:40.665Z,98.61
2022-10-02T09:54:40.641Z,97.90
2022-10-02T09:55:40.721Z,96.58
2022-10-02T09:56:40.618Z,95.96
2022-10-02T09:57:40.638Z,95.76
2022-10-02T09:58:40.598Z,95.56
2022-10-02T09:59:40.585Z,96.06
2022-10-02T10:00:40.603Z,96.06
2022-10-02T10:01:40.861Z,95.76
2022-10-02T10:02:40.618Z,95.35
2022-10-02T10:03:40.532Z,95.35
2022-10-02T10:05:01.327Z,94.94
2022-10-02T10:05:40.531Z,94.84
2022-10-02T10:06:40.518Z,95.56
2022-10-02T10:07:40.483Z,95.15
2022-10-02T10:08:40.461Z,96.17
2022-10-02T10:09:40.458Z,96.58
2022-10-02T10:10:40.439Z,95.86
2022-10-02T10:11:40.472Z,94.84
2022-10-02T10:12:40.416Z,96.17
2022-10-02T10:13:40.425Z,95.35
2022-10-02T10:14:40.371Z,95.15
2022-10-02T10:15:40.376Z,95.76
2022-10-02T10:16:40.413Z,95.86
2022-10-02T10:17:40.343Z,96.06
2022-10-02T10:18:40.358Z,96.33
2022-10-02T10:19:40.322Z,95.92
2022-10-02T10:20:40.299Z,95.10
2022-10-02T10:21:40.752Z,95.41
2022-10-02T10:22:40.270Z,95.10
2022-10-02T10:23:40.286Z,96.12
2022-10-02T10:24:40.251Z,96.43
2022-10-02T10:25:40.230Z,96.84
2022-10-02T10:26:40.228Z,96.43
2022-10-02T10:27:40.235Z,96.12
2022-10-02T10:28:40.238Z,96.02
2022-10-02T10:29:40.182Z,96.59
2022-10-02T10:30:40.189Z,96.18
2022-10-02T10:31:40.711Z,94.95
2022-10-02T10:32:40.138Z,95.97
2022-10-02T10:33:40.125Z,96.08
2022-10-02T10:34:40.101Z,96.18
2022-10-02T10:35:40.116Z,95.67
2022-10-02T10:36:44.514Z,93.73
2022-10-02T10:37:40.100Z,94.95
2022-10-02T10:38:40.052Z,93.02
2022-10-02T10:39:40.038Z,93.38
2022-10-02T10:40:40.031Z,94.50
2022-10-02T10:41:40.352Z,95.42
2022-10-02T10:43:03.047Z,94.30
2022-10-02T10:43:39.993Z,94.50
2022-10-02T10:44:39.998Z,93.48
2022-10-02T10:45:40.075Z,93.69
2022-10-02T10:46:39.943Z,94.50
2022-10-02T10:47:39.930Z,93.48
2022-10-02T10:48:39.920Z,92.42
2022-10-02T10:49:39.927Z,91.91
2022-10-02T10:50:39.887Z,93.03
2022-10-02T10:51:39.975Z,93.74
2022-10-02T10:52:39.856Z,94.15
2022-10-02T10:53:39.887Z,94.01
2022-10-02T10:54:39.906Z,91.77
2022-10-02T10:55:40.210Z,90.75
2022-10-02T10:56:39.804Z,90.24
2022-10-02T10:57:39.834Z,90.24
2022-10-02T10:58:39.784Z,91.56
2022-10-02T10:59:39.765Z,90.55
2022-10-02T11:00:39.853Z,91.46
2022-10-02T11:01:40.182Z,92.27
2022-10-02T11:02:39.813Z,92.48
2022-10-02T11:03:39.751Z,92.38
2022-10-02T11:04:39.698Z,90.55
2022-10-02T11:05:39.722Z,90.85
2022-10-02T11:06:43.992Z,92.89
2022-10-02T11:07:39.659Z,93.29
2022-10-02T11:08:39.641Z,91.56
2022-10-02T11:09:39.649Z,90.75
2022-10-02T11:10:39.638Z,91.16
2022-10-02T11:11:40.068Z,92.38
2022-10-02T11:12:39.600Z,92.18
2022-10-02T11:13:39.568Z,92.68
2022-10-02T11:14:39.594Z,92.48
2022-10-02T11:15:39.549Z,91.26
2022-10-02T11:16:39.599Z,91.66
2022-10-02T11:17:39.534Z,92.94
2022-10-02T11:18:39.514Z,92.94
2022-10-02T11:19:39.487Z,93.76
2022-10-02T11:20:39.485Z,91.93
2022-10-02T11:21:39.706Z,92.23
2022-10-02T11:22:39.461Z,92.23
2022-10-02T11:23:39.465Z,92.94
2022-10-02T11:24:39.569Z,93.86
2022-10-02T11:25:39.419Z,90.81
2022-10-02T11:26:39.389Z,91.31
2022-10-02T11:27:39.383Z,91.11
2022-10-02T11:28:39.384Z,90.81
2022-10-02T11:29:39.403Z,92.29
2022-10-02T11:30:41.707Z,93.51
2022-10-02T11:31:39.978Z,92.90
2022-10-02T11:32:39.320Z,91.64
2022-10-02T11:33:39.327Z,89.30
2022-10-02T11:34:39.315Z,89.56
2022-10-02T11:35:39.272Z,89.97
2022-10-02T11:36:39.271Z,90.14
2022-10-02T11:37:39.257Z,87.22
2022-10-02T11:38:39.268Z,86.10
2022-10-02T11:39:39.217Z,83.91
2022-10-02T11:40:39.212Z,85.33
2022-10-02T11:41:39.591Z,85.94
2022-10-02T11:42:39.203Z,85.44
2022-10-02T11:43:43.769Z,85.60
2022-10-02T11:44:39.177Z,82.15
2022-10-02T11:45:39.194Z,83.94
2022-10-02T11:46:39.129Z,84.00
2022-10-02T11:47:39.133Z,83.59
2022-10-02T11:48:39.121Z,84.97
2022-10-02T11:49:39.085Z,84.27
2022-10-02T11:50:39.073Z,83.86
2022-10-02T11:51:39.605Z,81.69
2022-10-02T11:52:39.075Z,82.90
2022-10-02T11:53:39.039Z,82.30
2022-10-02T11:54:39.056Z,82.70
2022-10-02T11:55:39.004Z,81.43
2022-10-02T11:56:39.000Z,82.44
2022-10-02T11:57:39.006Z,81.93
2022-10-02T11:58:38.959Z,82.14
2022-10-02T11:59:38.947Z,83.65
2022-10-02T12:00:38.940Z,82.24
2022-10-02T12:01:39.424Z,83.55
2022-10-02T12:02:39.184Z,81.02
2022-10-02T12:03:38.891Z,80.52
2022-10-02T12:04:38.913Z,81.73
2022-10-02T12:05:38.863Z,81.93
2022-10-02T12:06:38.859Z,81.18
2022-10-02T12:07:38.836Z,81.79
2022-10-02T12:08:38.838Z,82.40
2022-10-02T12:09:38.842Z,81.29
2022-10-02T12:10:38.799Z,81.18
2022-10-02T12:11:39.336Z,80.88
2022-10-02T12:12:38.772Z,80.72
2022-10-02T12:13:38.766Z,81.73
2022-10-02T12:14:38.773Z,83.09
2022-10-02T12:15:38.743Z,83.90
2022-10-02T12:16:38.749Z,84.30
2022-10-02T12:17:38.695Z,84.20
2022-10-02T12:18:38.697Z,84.06
2022-10-02T12:19:38.676Z,84.27
2022-10-02T12:20:38.693Z,84.47
2022-10-02T12:21:39.111Z,83.96
2022-10-02T12:22:38.629Z,83.45
2022-10-02T12:23:38.636Z,84.27
2022-10-02T12:24:38.605Z,84.81
2022-10-02T12:25:38.659Z,83.09
2022-10-02T12:26:38.585Z,83.18
2022-10-02T12:27:38.550Z,84.10
2022-10-02T12:28:38.616Z,83.18
2022-10-02T12:29:38.562Z,83.90
2022-10-02T12:30:38.525Z,82.98
2022-10-02T12:31:38.901Z,83.90
2022-10-02T12:32:38.522Z,84.44
2022-10-02T12:33:38.486Z,83.23
2022-10-02T12:34:38.463Z,83.43
2022-10-02T12:35:38.452Z,83.94
2022-10-02T12:36:38.444Z,84.34
2022-10-02T12:37:38.419Z,84.55
2022-10-02T12:38:38.451Z,84.75
2022-10-02T12:39:38.400Z,86.21
2022-10-02T12:40:38.385Z,87.52
2022-10-02T12:41:38.696Z,87.37
2022-10-02T12:42:38.382Z,87.97
2022-10-02T12:43:38.352Z,88.68
2022-10-02T12:44:38.362Z,88.28
2022-10-02T12:45:38.376Z,89.29
2022-10-02T12:46:38.359Z,89.29
2022-10-02T12:47:38.284Z,90.81
2022-10-02T12:48:38.314Z,91.42
2022-10-02T12:49:38.272Z,91.83
2022-10-02T12:50:38.255Z,92.03
2022-10-02T12:51:38.636Z,91.93
2022-10-02T12:52:38.223Z,91.42